sensor_id;sensor_type;location;lat;lon;timestamp;P1;durP1;ratioP1;P2;durP2;ratioP2
63032;SDS011;49121;38.932;-9.018;2022-07-29T00:00:06;6.22;;;1.02;;
63032;SDS011;49121;38.932;-9.018;2022-07-29T00:02:08;2.60;;;1.10;;
63032;SDS011;49121;38.932;-9.018;2022-07-29T00:04:09;3.67;;;1.08;;
63032;SDS011;49121;38.932;-9.018;2022-07-29T00:06:10;1.92;;;1.20;;
63032;SDS011;49121;38.932;-9.018;2022-07-29T00:08:11;0.85;;;0.73;;
63032;SDS011;49121;38.932;-9.018;2022-07-29T00:10:13;1.65;;;1.17;;
63032;SDS011;49121;38.932;-9.018;2022-07-29T00:12:14;1.55;;;0.73;;
63032;SDS011;49121;38.932;-9.018;2022-07-29T00:14:14;3.13;;;1.10;;
63032;SDS011;49121;38.932;-9.018;2022-07-29T00:16:15;2.55;;;1.20;;
63032;SDS011;49121;38.932;-9.018;2022-07-29T00:18:16;3.05;;;1.15;;
63032;SDS011;49121;38.932;-9.018;2022-07-29T00:20:16;6.25;;;1.10;;
63032;SDS011;49121;38.932;-9.018;2022-07-29T00:22:17;5.50;;;1.00;;
63032;SDS011;49121;38.932;-9.018;2022-07-29T00:24:19;7.03;;;1.30;;
63032;SDS011;49121;38.932;-9.018;2022-07-29T00:26:20;2.00;;;1.10;;
63032;SDS011;49121;38.932;-9.018;2022-07-29T00:28:21;7.47;;;1.70;;
63032;SDS011;49121;38.932;-9.018;2022-07-29T00:33:18;3.28;;;0.95;;
63032;SDS011;49121;38.932;-9.018;2022-07-29T00:35:37;1.20;;;0.80;;
63032;SDS011;49121;38.932;-9.018;2022-07-29T00:37:44;1.85;;;0.90;;
63032;SDS011;49121;38.932;-9.018;2022-07-29T00:39:45;4.25;;;0.85;;
63032;SDS011;49121;38.932;-9.018;2022-07-29T00:41:45;2.75;;;1.30;;
63032;SDS011;49121;38.932;-9.018;2022-07-29T00:43:46;1.38;;;0.80;;
63032;SDS011;49121;38.932;-9.018;2022-07-29T00:45:48;0.93;;;0.82;;
63032;SDS011;49121;38.932;-9.018;2022-07-29T00:47:48;5.65;;;1.52;;
63032;SDS011;49121;38.932;-9.018;2022-07-29T00:49:50;1.08;;;0.90;;
63032;SDS011;49121;38.932;-9.018;2022-07-29T00:51:51;3.65;;;1.17;;
63032;SDS011;49121;38.932;-9.018;2022-07-29T00:53:53;4.78;;;1.55;;
63032;SDS011;49121;38.932;-9.018;2022-07-29T00:56:12;2.80;;;1.10;;
63032;SDS011;49121;38.932;-9.018;2022-07-29T00:58:12;3.05;;;1.52;;
63032;SDS011;49121;38.932;-9.018;2022-07-29T01:00:20;2.78;;;1.30;;
63032;SDS011;49121;38.932;-9.018;2022-07-29T01:02:23;3.10;;;1.20;;
63032;SDS011;49121;38.932;-9.018;2022-07-29T01:04:25;6.03;;;1.80;;
63032;SDS011;49121;38.932;-9.018;2022-07-29T01:06:27;7.18;;;1.70;;
63032;SDS011;49121;38.932;-9.018;2022-07-29T01:08:28;3.35;;;1.13;;
63032;SDS011;49121;38.932;-9.018;2022-07-29T01:10:30;1.88;;;1.52;;
63032;SDS011;49121;38.932;-9.018;2022-07-29T01:12:32;4.95;;;2.00;;
63032;SDS011;49121;38.932;-9.018;2022-07-29T01:14:34;4.93;;;1.63;;
63032;SDS011;49121;38.932;-9.018;2022-07-29T01:16:39;4.38;;;1.60;;
63032;SDS011;49121;38.932;-9.018;2022-07-29T01:19:12;4.93;;;1.65;;
63032;SDS011;49121;38.932;-9.018;2022-07-29T01:29:03;6.90;;;1.70;;
63032;SDS011;49121;38.932;-9.018;2022-07-29T01:31:05;4.90;;;1.98;;
63032;SDS011;49121;38.932;-9.018;2022-07-29T01:33:10;5.05;;;2.17;;
63032;SDS011;49121;38.932;-9.018;2022-07-29T01:35:36;10.05;;;2.33;;
63032;SDS011;49121;38.932;-9.018;2022-07-29T01:40:11;8.63;;;2.28;;
63032;SDS011;49121;38.932;-9.018;2022-07-29T01:42:34;6.10;;;2.07;;
63032;SDS011;49121;38.932;-9.018;2022-07-29T01:44:44;6.38;;;1.70;;
63032;SDS011;49121;38.932;-9.018;2022-07-29T01:46:54;2.80;;;1.70;;
63032;SDS011;49121;38.932;-9.018;2022-07-29T01:51:47;5.20;;;1.50;;
63032;SDS011;49121;38.932;-9.018;2022-07-29T01:55:57;2.90;;;1.60;;
63032;SDS011;49121;38.932;-9.018;2022-07-29T01:58:03;5.05;;;1.63;;
63032;SDS011;49121;38.932;-9.018;2022-07-29T02:00:24;8.35;;;2.00;;
63032;SDS011;49121;38.932;-9.018;2022-07-29T02:02:26;10.23;;;2.10;;
63032;SDS011;49121;38.932;-9.018;2022-07-29T02:04:30;9.68;;;1.83;;
63032;SDS011;49121;38.932;-9.018;2022-07-29T02:09:14;4.13;;;1.90;;
63032;SDS011;49121;38.932;-9.018;2022-07-29T02:13:25;3.42;;;2.03;;
63032;SDS011;49121;38.932;-9.018;2022-07-29T02:15:30;4.32;;;2.40;;
63032;SDS011;49121;38.932;-9.018;2022-07-29T02:17:33;4.80;;;1.88;;
63032;SDS011;49121;38.932;-9.018;2022-07-29T02:19:39;7.20;;;2.20;;
63032;SDS011;49121;38.932;-9.018;2022-07-29T02:24:23;7.40;;;2.22;;
63032;SDS011;49121;38.932;-9.018;2022-07-29T02:26:27;5.82;;;2.33;;
63032;SDS011;49121;38.932;-9.018;2022-07-29T02:28:29;5.53;;;3.38;;
63032;SDS011;49121;38.932;-9.018;2022-07-29T02:30:31;4.22;;;2.00;;
63032;SDS011;49121;38.932;-9.018;2022-07-29T02:32:34;14.43;;;2.95;;
63032;SDS011;49121;38.932;-9.018;2022-07-29T02:34:37;5.80;;;2.20;;
63032;SDS011;49121;38.932;-9.018;2022-07-29T02:36:40;15.00;;;2.78;;
63032;SDS011;49121;38.932;-9.018;2022-07-29T02:41:44;6.22;;;2.42;;
63032;SDS011;49121;38.932;-9.018;2022-07-29T02:43:48;5.38;;;1.98;;
63032;SDS011;49121;38.932;-9.018;2022-07-29T02:45:53;4.75;;;2.20;;
63032;SDS011;49121;38.932;-9.018;2022-07-29T02:47:57;5.13;;;2.17;;
63032;SDS011;49121;38.932;-9.018;2022-07-29T02:52:12;5.82;;;2.03;;
63032;SDS011;49121;38.932;-9.018;2022-07-29T02:54:39;3.35;;;2.55;;
63032;SDS011;49121;38.932;-9.018;2022-07-29T02:56:51;6.15;;;2.30;;
63032;SDS011;49121;38.932;-9.018;2022-07-29T03:04:01;8.02;;;2.22;;
63032;SDS011;49121;38.932;-9.018;2022-07-29T03:06:08;2.90;;;1.48;;
63032;SDS011;49121;38.932;-9.018;2022-07-29T03:08:12;4.72;;;2.08;;
63032;SDS011;49121;38.932;-9.018;2022-07-29T03:10:14;8.20;;;2.55;;
63032;SDS011;49121;38.932;-9.018;2022-07-29T03:12:16;3.58;;;2.15;;
63032;SDS011;49121;38.932;-9.018;2022-07-29T03:14:18;4.30;;;2.55;;
63032;SDS011;49121;38.932;-9.018;2022-07-29T03:16:21;10.10;;;2.35;;
63032;SDS011;49121;38.932;-9.018;2022-07-29T03:18:23;4.28;;;2.30;;
63032;SDS011;49121;38.932;-9.018;2022-07-29T03:20:25;6.50;;;3.00;;
63032;SDS011;49121;38.932;-9.018;2022-07-29T03:22:26;5.82;;;2.40;;
63032;SDS011;49121;38.932;-9.018;2022-07-29T03:24:46;5.60;;;2.50;;
63032;SDS011;49121;38.932;-9.018;2022-07-29T03:26:46;5.50;;;2.13;;
63032;SDS011;49121;38.932;-9.018;2022-07-29T03:28:47;6.03;;;2.47;;
63032;SDS011;49121;38.932;-9.018;2022-07-29T03:30:48;4.13;;;2.08;;
63032;SDS011;49121;38.932;-9.018;2022-07-29T03:32:50;6.47;;;2.88;;
63032;SDS011;49121;38.932;-9.018;2022-07-29T03:35:10;8.57;;;2.70;;
63032;SDS011;49121;38.932;-9.018;2022-07-29T03:37:11;5.30;;;2.30;;
63032;SDS011;49121;38.932;-9.018;2022-07-29T03:39:13;4.32;;;2.40;;
63032;SDS011;49121;38.932;-9.018;2022-07-29T03:41:20;7.28;;;2.42;;
63032;SDS011;49121;38.932;-9.018;2022-07-29T03:43:24;4.88;;;2.83;;
63032;SDS011;49121;38.932;-9.018;2022-07-29T03:45:35;10.35;;;2.80;;
63032;SDS011;49121;38.932;-9.018;2022-07-29T03:47:40;4.63;;;1.90;;
63032;SDS011;49121;38.932;-9.018;2022-07-29T03:49:46;10.95;;;2.88;;
63032;SDS011;49121;38.932;-9.018;2022-07-29T03:51:54;7.22;;;2.17;;
63032;SDS011;49121;38.932;-9.018;2022-07-29T03:53:55;8.27;;;3.17;;
63032;SDS011;49121;38.932;-9.018;2022-07-29T03:55:57;8.45;;;2.75;;
63032;SDS011;49121;38.932;-9.018;2022-07-29T03:57:59;9.83;;;2.87;;
63032;SDS011;49121;38.932;-9.018;2022-07-29T04:00:03;6.40;;;2.83;;
63032;SDS011;49121;38.932;-9.018;2022-07-29T04:02:05;4.35;;;2.67;;
63032;SDS011;49121;38.932;-9.018;2022-07-29T04:04:09;5.50;;;2.40;;
63032;SDS011;49121;38.932;-9.018;2022-07-29T04:06:10;5.68;;;2.45;;
63032;SDS011;49121;38.932;-9.018;2022-07-29T04:08:11;8.82;;;2.95;;
63032;SDS011;49121;38.932;-9.018;2022-07-29T04:10:48;6.22;;;2.80;;
63032;SDS011;49121;38.932;-9.018;2022-07-29T04:12:50;8.95;;;2.85;;
63032;SDS011;49121;38.932;-9.018;2022-07-29T04:14:51;11.30;;;2.88;;
63032;SDS011;49121;38.932;-9.018;2022-07-29T04:19:11;9.45;;;2.97;;
63032;SDS011;49121;38.932;-9.018;2022-07-29T04:21:14;9.98;;;2.83;;
63032;SDS011;49121;38.932;-9.018;2022-07-29T04:23:14;8.27;;;2.97;;
63032;SDS011;49121;38.932;-9.018;2022-07-29T04:25:16;5.60;;;2.92;;
63032;SDS011;49121;38.932;-9.018;2022-07-29T04:27:18;9.07;;;2.70;;
63032;SDS011;49121;38.932;-9.018;2022-07-29T04:29:22;10.05;;;2.92;;
63032;SDS011;49121;38.932;-9.018;2022-07-29T04:31:23;5.60;;;3.00;;
63032;SDS011;49121;38.932;-9.018;2022-07-29T04:33:24;5.70;;;2.35;;
63032;SDS011;49121;38.932;-9.018;2022-07-29T04:35:25;4.93;;;2.40;;
63032;SDS011;49121;38.932;-9.018;2022-07-29T04:37:25;4.75;;;2.45;;
63032;SDS011;49121;38.932;-9.018;2022-07-29T04:39:26;7.65;;;2.78;;
63032;SDS011;49121;38.932;-9.018;2022-07-29T04:41:27;9.00;;;2.92;;
63032;SDS011;49121;38.932;-9.018;2022-07-29T04:43:35;6.28;;;2.80;;
63032;SDS011;49121;38.932;-9.018;2022-07-29T04:45:39;8.77;;;3.45;;
63032;SDS011;49121;38.932;-9.018;2022-07-29T04:47:44;5.90;;;3.00;;
63032;SDS011;49121;38.932;-9.018;2022-07-29T04:49:46;5.03;;;2.42;;
63032;SDS011;49121;38.932;-9.018;2022-07-29T04:51:47;5.57;;;2.70;;
63032;SDS011;49121;38.932;-9.018;2022-07-29T04:53:47;5.32;;;2.92;;
63032;SDS011;49121;38.932;-9.018;2022-07-29T04:55:48;7.85;;;3.00;;
63032;SDS011;49121;38.932;-9.018;2022-07-29T04:57:49;4.85;;;3.10;;
63032;SDS011;49121;38.932;-9.018;2022-07-29T04:59:49;5.32;;;3.13;;
63032;SDS011;49121;38.932;-9.018;2022-07-29T05:02:10;5.90;;;2.72;;
63032;SDS011;49121;38.932;-9.018;2022-07-29T05:04:10;10.57;;;3.13;;
63032;SDS011;49121;38.932;-9.018;2022-07-29T05:06:11;4.82;;;2.55;;
63032;SDS011;49121;38.932;-9.018;2022-07-29T05:08:12;7.28;;;2.45;;
63032;SDS011;49121;38.932;-9.018;2022-07-29T05:10:13;7.60;;;3.38;;
63032;SDS011;49121;38.932;-9.018;2022-07-29T05:12:14;4.18;;;2.53;;
63032;SDS011;49121;38.932;-9.018;2022-07-29T05:14:15;8.05;;;3.13;;
63032;SDS011;49121;38.932;-9.018;2022-07-29T05:18:35;5.85;;;2.72;;
63032;SDS011;49121;38.932;-9.018;2022-07-29T05:20:54;8.13;;;3.30;;
63032;SDS011;49121;38.932;-9.018;2022-07-29T05:22:55;6.00;;;2.97;;
63032;SDS011;49121;38.932;-9.018;2022-07-29T05:24:58;5.55;;;2.65;;
63032;SDS011;49121;38.932;-9.018;2022-07-29T05:26:59;7.10;;;3.28;;
63032;SDS011;49121;38.932;-9.018;2022-07-29T05:31:57;7.90;;;2.90;;
63032;SDS011;49121;38.932;-9.018;2022-07-29T05:33:58;7.70;;;3.22;;
63032;SDS011;49121;38.932;-9.018;2022-07-29T05:35:59;10.95;;;2.90;;
63032;SDS011;49121;38.932;-9.018;2022-07-29T05:38:00;7.82;;;2.58;;
63032;SDS011;49121;38.932;-9.018;2022-07-29T05:40:19;4.10;;;2.60;;
63032;SDS011;49121;38.932;-9.018;2022-07-29T05:42:39;4.75;;;2.45;;
63032;SDS011;49121;38.932;-9.018;2022-07-29T05:44:39;3.47;;;2.42;;
63032;SDS011;49121;38.932;-9.018;2022-07-29T05:46:46;6.78;;;2.90;;
63032;SDS011;49121;38.932;-9.018;2022-07-29T05:48:48;5.75;;;2.47;;
63032;SDS011;49121;38.932;-9.018;2022-07-29T05:50:49;3.50;;;2.20;;
63032;SDS011;49121;38.932;-9.018;2022-07-29T05:52:49;4.45;;;3.00;;
63032;SDS011;49121;38.932;-9.018;2022-07-29T05:55:09;5.35;;;2.83;;
63032;SDS011;49121;38.932;-9.018;2022-07-29T05:57:19;5.72;;;2.53;;
63032;SDS011;49121;38.932;-9.018;2022-07-29T05:59:22;7.25;;;2.47;;
63032;SDS011;49121;38.932;-9.018;2022-07-29T06:01:24;5.78;;;3.17;;
63032;SDS011;49121;38.932;-9.018;2022-07-29T06:03:25;5.18;;;2.65;;
63032;SDS011;49121;38.932;-9.018;2022-07-29T06:05:25;6.22;;;2.75;;
63032;SDS011;49121;38.932;-9.018;2022-07-29T06:07:26;6.30;;;2.95;;
63032;SDS011;49121;38.932;-9.018;2022-07-29T06:09:27;5.35;;;2.78;;
63032;SDS011;49121;38.932;-9.018;2022-07-29T06:11:29;5.47;;;2.67;;
63032;SDS011;49121;38.932;-9.018;2022-07-29T06:13:30;4.72;;;3.20;;
63032;SDS011;49121;38.932;-9.018;2022-07-29T06:15:31;4.63;;;2.42;;
63032;SDS011;49121;38.932;-9.018;2022-07-29T06:17:51;6.45;;;2.25;;
63032;SDS011;49121;38.932;-9.018;2022-07-29T06:19:52;6.95;;;2.88;;
63032;SDS011;49121;38.932;-9.018;2022-07-29T06:21:53;6.43;;;2.75;;
63032;SDS011;49121;38.932;-9.018;2022-07-29T06:23:54;6.22;;;2.17;;
63032;SDS011;49121;38.932;-9.018;2022-07-29T06:25:55;4.38;;;2.55;;
63032;SDS011;49121;38.932;-9.018;2022-07-29T06:27:56;6.97;;;2.65;;
63032;SDS011;49121;38.932;-9.018;2022-07-29T06:29:57;11.60;;;2.88;;
63032;SDS011;49121;38.932;-9.018;2022-07-29T06:31:58;5.97;;;2.60;;
63032;SDS011;49121;38.932;-9.018;2022-07-29T06:33:59;6.40;;;2.60;;
63032;SDS011;49121;38.932;-9.018;2022-07-29T06:35:59;8.10;;;2.80;;
63032;SDS011;49121;38.932;-9.018;2022-07-29T06:38:00;5.45;;;2.40;;
63032;SDS011;49121;38.932;-9.018;2022-07-29T06:40:03;5.70;;;2.40;;
63032;SDS011;49121;38.932;-9.018;2022-07-29T06:42:42;5.60;;;2.13;;
63032;SDS011;49121;38.932;-9.018;2022-07-29T06:44:44;2.95;;;2.00;;
63032;SDS011;49121;38.932;-9.018;2022-07-29T06:46:44;4.78;;;1.90;;
63032;SDS011;49121;38.932;-9.018;2022-07-29T06:48:47;5.15;;;2.10;;
63032;SDS011;49121;38.932;-9.018;2022-07-29T06:53:26;4.10;;;1.80;;
63032;SDS011;49121;38.932;-9.018;2022-07-29T06:55:27;3.78;;;1.92;;
63032;SDS011;49121;38.932;-9.018;2022-07-29T06:57:28;4.90;;;1.80;;
63032;SDS011;49121;38.932;-9.018;2022-07-29T06:59:28;5.85;;;2.20;;
63032;SDS011;49121;38.932;-9.018;2022-07-29T07:01:29;3.75;;;2.10;;
63032;SDS011;49121;38.932;-9.018;2022-07-29T07:03:30;4.00;;;1.92;;
63032;SDS011;49121;38.932;-9.018;2022-07-29T07:05:31;3.63;;;2.08;;
63032;SDS011;49121;38.932;-9.018;2022-07-29T07:07:32;8.15;;;1.83;;
63032;SDS011;49121;38.932;-9.018;2022-07-29T07:09:33;4.03;;;2.17;;
63032;SDS011;49121;38.932;-9.018;2022-07-29T07:11:33;7.43;;;2.17;;
63032;SDS011;49121;38.932;-9.018;2022-07-29T07:13:34;7.82;;;2.25;;
63032;SDS011;49121;38.932;-9.018;2022-07-29T07:15:35;4.90;;;2.20;;
63032;SDS011;49121;38.932;-9.018;2022-07-29T07:17:36;5.35;;;2.28;;
63032;SDS011;49121;38.932;-9.018;2022-07-29T07:19:37;3.97;;;1.80;;
63032;SDS011;49121;38.932;-9.018;2022-07-29T07:21:38;6.28;;;1.83;;
63032;SDS011;49121;38.932;-9.018;2022-07-29T07:23:57;3.25;;;1.80;;
63032;SDS011;49121;38.932;-9.018;2022-07-29T07:26:17;2.60;;;1.63;;
63032;SDS011;49121;38.932;-9.018;2022-07-29T07:28:18;3.40;;;1.70;;
63032;SDS011;49121;38.932;-9.018;2022-07-29T07:30:19;5.07;;;2.00;;
63032;SDS011;49121;38.932;-9.018;2022-07-29T07:32:20;5.03;;;2.00;;
63032;SDS011;49121;38.932;-9.018;2022-07-29T07:34:20;4.53;;;1.95;;
63032;SDS011;49121;38.932;-9.018;2022-07-29T07:36:21;6.80;;;2.10;;
63032;SDS011;49121;38.932;-9.018;2022-07-29T07:38:22;6.13;;;1.85;;
63032;SDS011;49121;38.932;-9.018;2022-07-29T07:40:23;7.40;;;2.20;;
63032;SDS011;49121;38.932;-9.018;2022-07-29T07:42:25;5.10;;;1.88;;
63032;SDS011;49121;38.932;-9.018;2022-07-29T07:44:26;9.15;;;2.00;;
63032;SDS011;49121;38.932;-9.018;2022-07-29T07:46:27;10.10;;;2.15;;
63032;SDS011;49121;38.932;-9.018;2022-07-29T07:48:28;6.93;;;2.03;;
63032;SDS011;49121;38.932;-9.018;2022-07-29T07:50:29;4.55;;;2.10;;
63032;SDS011;49121;38.932;-9.018;2022-07-29T07:52:30;10.45;;;2.38;;
63032;SDS011;49121;38.932;-9.018;2022-07-29T07:54:30;2.83;;;1.67;;
63032;SDS011;49121;38.932;-9.018;2022-07-29T07:56:31;6.55;;;1.77;;
63032;SDS011;49121;38.932;-9.018;2022-07-29T07:58:32;6.40;;;2.13;;
63032;SDS011;49121;38.932;-9.018;2022-07-29T08:00:35;6.68;;;2.35;;
63032;SDS011;49121;38.932;-9.018;2022-07-29T08:02:44;8.23;;;2.00;;
63032;SDS011;49121;38.932;-9.018;2022-07-29T08:04:46;5.97;;;2.33;;
63032;SDS011;49121;38.932;-9.018;2022-07-29T08:06:46;4.95;;;2.08;;
63032;SDS011;49121;38.932;-9.018;2022-07-29T08:08:50;5.53;;;2.30;;
63032;SDS011;49121;38.932;-9.018;2022-07-29T08:10:50;7.65;;;2.70;;
63032;SDS011;49121;38.932;-9.018;2022-07-29T08:12:52;5.40;;;2.33;;
63032;SDS011;49121;38.932;-9.018;2022-07-29T08:14:54;4.85;;;2.20;;
63032;SDS011;49121;38.932;-9.018;2022-07-29T08:16:55;8.57;;;2.20;;
63032;SDS011;49121;38.932;-9.018;2022-07-29T08:18:55;4.13;;;1.83;;
63032;SDS011;49121;38.932;-9.018;2022-07-29T08:20:57;7.88;;;2.42;;
63032;SDS011;49121;38.932;-9.018;2022-07-29T08:22:59;6.03;;;2.47;;
63032;SDS011;49121;38.932;-9.018;2022-07-29T08:24:59;9.00;;;2.38;;
63032;SDS011;49121;38.932;-9.018;2022-07-29T08:27:19;4.30;;;2.20;;
63032;SDS011;49121;38.932;-9.018;2022-07-29T08:29:32;7.10;;;2.67;;
63032;SDS011;49121;38.932;-9.018;2022-07-29T08:31:33;4.05;;;2.20;;
63032;SDS011;49121;38.932;-9.018;2022-07-29T08:33:35;6.10;;;1.80;;
63032;SDS011;49121;38.932;-9.018;2022-07-29T08:35:36;9.10;;;2.35;;
63032;SDS011;49121;38.932;-9.018;2022-07-29T08:37:36;5.18;;;2.75;;
63032;SDS011;49121;38.932;-9.018;2022-07-29T08:39:37;3.92;;;2.30;;
63032;SDS011;49121;38.932;-9.018;2022-07-29T08:41:38;17.92;;;2.65;;
63032;SDS011;49121;38.932;-9.018;2022-07-29T08:43:39;9.98;;;2.42;;
63032;SDS011;49121;38.932;-9.018;2022-07-29T08:45:51;5.88;;;2.80;;
63032;SDS011;49121;38.932;-9.018;2022-07-29T08:47:52;4.15;;;2.28;;
63032;SDS011;49121;38.932;-9.018;2022-07-29T08:49:53;4.80;;;2.47;;
63032;SDS011;49121;38.932;-9.018;2022-07-29T08:54:16;5.53;;;2.33;;
63032;SDS011;49121;38.932;-9.018;2022-07-29T08:56:18;6.80;;;2.38;;
63032;SDS011;49121;38.932;-9.018;2022-07-29T08:58:19;6.80;;;2.90;;
63032;SDS011;49121;38.932;-9.018;2022-07-29T09:00:22;4.95;;;2.17;;
63032;SDS011;49121;38.932;-9.018;2022-07-29T09:02:24;6.78;;;2.60;;
63032;SDS011;49121;38.932;-9.018;2022-07-29T09:04:30;4.10;;;2.50;;
63032;SDS011;49121;38.932;-9.018;2022-07-29T09:06:34;7.95;;;2.33;;
63032;SDS011;49121;38.932;-9.018;2022-07-29T09:08:39;8.85;;;3.05;;
63032;SDS011;49121;38.932;-9.018;2022-07-29T09:10:41;6.30;;;2.47;;
63032;SDS011;49121;38.932;-9.018;2022-07-29T09:12:41;4.72;;;2.25;;
63032;SDS011;49121;38.932;-9.018;2022-07-29T09:14:42;6.45;;;2.85;;
63032;SDS011;49121;38.932;-9.018;2022-07-29T09:16:47;4.10;;;2.58;;
63032;SDS011;49121;38.932;-9.018;2022-07-29T09:18:54;5.88;;;2.63;;
63032;SDS011;49121;38.932;-9.018;2022-07-29T09:20:55;10.05;;;2.40;;
63032;SDS011;49121;38.932;-9.018;2022-07-29T09:23:14;4.50;;;2.15;;
63032;SDS011;49121;38.932;-9.018;2022-07-29T09:27:53;5.00;;;2.10;;
63032;SDS011;49121;38.932;-9.018;2022-07-29T09:30:03;7.55;;;2.90;;
63032;SDS011;49121;38.932;-9.018;2022-07-29T09:32:10;11.90;;;2.75;;
63032;SDS011;49121;38.932;-9.018;2022-07-29T09:34:12;9.88;;;2.40;;
63032;SDS011;49121;38.932;-9.018;2022-07-29T09:36:14;12.95;;;2.97;;
63032;SDS011;49121;38.932;-9.018;2022-07-29T09:38:15;7.28;;;2.30;;
63032;SDS011;49121;38.932;-9.018;2022-07-29T09:40:17;4.50;;;2.40;;
63032;SDS011;49121;38.932;-9.018;2022-07-29T09:42:29;4.72;;;2.60;;
63032;SDS011;49121;38.932;-9.018;2022-07-29T09:49:12;3.25;;;2.13;;
63032;SDS011;49121;38.932;-9.018;2022-07-29T09:51:20;3.65;;;2.00;;
63032;SDS011;49121;38.932;-9.018;2022-07-29T09:53:37;3.67;;;1.83;;
63032;SDS011;49121;38.932;-9.018;2022-07-29T09:55:49;8.43;;;2.10;;
63032;SDS011;49121;38.932;-9.018;2022-07-29T09:57:51;3.40;;;2.08;;
63032;SDS011;49121;38.932;-9.018;2022-07-29T10:00:05;5.38;;;2.05;;
63032;SDS011;49121;38.932;-9.018;2022-07-29T10:02:19;9.88;;;2.42;;
63032;SDS011;49121;38.932;-9.018;2022-07-29T10:04:20;6.40;;;2.50;;
63032;SDS011;49121;38.932;-9.018;2022-07-29T10:06:20;6.38;;;2.92;;
63032;SDS011;49121;38.932;-9.018;2022-07-29T10:08:25;14.15;;;2.60;;
63032;SDS011;49121;38.932;-9.018;2022-07-29T10:10:28;12.25;;;2.78;;
63032;SDS011;49121;38.932;-9.018;2022-07-29T10:12:30;7.65;;;2.70;;
63032;SDS011;49121;38.932;-9.018;2022-07-29T10:14:31;4.05;;;1.98;;
63032;SDS011;49121;38.932;-9.018;2022-07-29T10:18:54;10.80;;;2.58;;
63032;SDS011;49121;38.932;-9.018;2022-07-29T10:20:56;2.53;;;1.30;;
63032;SDS011;49121;38.932;-9.018;2022-07-29T10:22:57;6.07;;;1.95;;
63032;SDS011;49121;38.932;-9.018;2022-07-29T10:24:57;3.90;;;1.90;;
63032;SDS011;49121;38.932;-9.018;2022-07-29T10:26:59;11.65;;;2.17;;
63032;SDS011;49121;38.932;-9.018;2022-07-29T10:29:01;4.43;;;2.10;;
63032;SDS011;49121;38.932;-9.018;2022-07-29T10:31:03;3.00;;;1.80;;
63032;SDS011;49121;38.932;-9.018;2022-07-29T10:40:11;7.60;;;2.22;;
63032;SDS011;49121;38.932;-9.018;2022-07-29T10:42:52;5.97;;;2.00;;
63032;SDS011;49121;38.932;-9.018;2022-07-29T10:44:54;2.70;;;1.80;;
63032;SDS011;49121;38.932;-9.018;2022-07-29T10:46:55;4.28;;;2.00;;
63032;SDS011;49121;38.932;-9.018;2022-07-29T10:49:16;4.57;;;1.70;;
63032;SDS011;49121;38.932;-9.018;2022-07-29T10:51:18;8.88;;;2.05;;
63032;SDS011;49121;38.932;-9.018;2022-07-29T10:53:18;8.20;;;1.92;;
63032;SDS011;49121;38.932;-9.018;2022-07-29T10:57:31;2.80;;;1.63;;
63032;SDS011;49121;38.932;-9.018;2022-07-29T10:59:33;3.75;;;1.63;;
63032;SDS011;49121;38.932;-9.018;2022-07-29T11:01:35;3.35;;;2.00;;
63032;SDS011;49121;38.932;-9.018;2022-07-29T11:03:47;8.23;;;2.35;;
63032;SDS011;49121;38.932;-9.018;2022-07-29T11:05:52;8.15;;;2.33;;
63032;SDS011;49121;38.932;-9.018;2022-07-29T11:17:05;7.20;;;2.20;;
63032;SDS011;49121;38.932;-9.018;2022-07-29T11:21:34;3.70;;;1.33;;
63032;SDS011;49121;38.932;-9.018;2022-07-29T11:23:35;5.32;;;1.73;;
63032;SDS011;49121;38.932;-9.018;2022-07-29T11:25:37;4.50;;;1.85;;
63032;SDS011;49121;38.932;-9.018;2022-07-29T11:27:37;6.40;;;1.70;;
63032;SDS011;49121;38.932;-9.018;2022-07-29T11:30:00;7.43;;;2.25;;
63032;SDS011;49121;38.932;-9.018;2022-07-29T11:32:08;5.47;;;1.65;;
63032;SDS011;49121;38.932;-9.018;2022-07-29T11:34:18;5.18;;;2.05;;
63032;SDS011;49121;38.932;-9.018;2022-07-29T11:36:30;5.47;;;1.60;;
63032;SDS011;49121;38.932;-9.018;2022-07-29T11:38:31;4.13;;;1.50;;
63032;SDS011;49121;38.932;-9.018;2022-07-29T11:40:32;14.27;;;1.52;;
63032;SDS011;49121;38.932;-9.018;2022-07-29T11:47:00;1.20;;;1.10;;
63032;SDS011;49121;38.932;-9.018;2022-07-29T11:49:02;3.72;;;1.65;;
63032;SDS011;49121;38.932;-9.018;2022-07-29T11:51:04;6.45;;;1.67;;
63032;SDS011;49121;38.932;-9.018;2022-07-29T11:53:11;3.58;;;1.50;;
63032;SDS011;49121;38.932;-9.018;2022-07-29T11:55:14;2.70;;;1.65;;
63032;SDS011;49121;38.932;-9.018;2022-07-29T11:57:19;3.92;;;1.63;;
63032;SDS011;49121;38.932;-9.018;2022-07-29T11:59:20;9.52;;;1.27;;
63032;SDS011;49121;38.932;-9.018;2022-07-29T12:01:21;3.10;;;1.50;;
63032;SDS011;49121;38.932;-9.018;2022-07-29T12:03:27;6.07;;;1.35;;
63032;SDS011;49121;38.932;-9.018;2022-07-29T12:05:40;16.42;;;2.10;;
63032;SDS011;49121;38.932;-9.018;2022-07-29T12:07:42;4.75;;;1.23;;
63032;SDS011;49121;38.932;-9.018;2022-07-29T12:09:50;4.93;;;1.30;;
63032;SDS011;49121;38.932;-9.018;2022-07-29T12:11:58;3.00;;;1.40;;
63032;SDS011;49121;38.932;-9.018;2022-07-29T12:14:00;9.25;;;1.73;;
63032;SDS011;49121;38.932;-9.018;2022-07-29T12:16:02;3.35;;;1.38;;
63032;SDS011;49121;38.932;-9.018;2022-07-29T12:18:17;23.80;;;2.35;;
63032;SDS011;49121;38.932;-9.018;2022-07-29T12:20:24;4.40;;;1.23;;
63032;SDS011;49121;38.932;-9.018;2022-07-29T12:22:33;2.85;;;1.40;;
63032;SDS011;49121;38.932;-9.018;2022-07-29T12:24:44;5.35;;;1.90;;
63032;SDS011;49121;38.932;-9.018;2022-07-29T12:26:55;4.82;;;1.60;;
63032;SDS011;49121;38.932;-9.018;2022-07-29T12:28:59;1.70;;;1.30;;
63032;SDS011;49121;38.932;-9.018;2022-07-29T12:31:00;3.72;;;1.38;;
63032;SDS011;49121;38.932;-9.018;2022-07-29T12:33:01;3.45;;;1.30;;
63032;SDS011;49121;38.932;-9.018;2022-07-29T12:35:05;2.10;;;1.52;;
63032;SDS011;49121;38.932;-9.018;2022-07-29T12:37:25;2.67;;;1.40;;
63032;SDS011;49121;38.932;-9.018;2022-07-29T12:39:26;2.90;;;1.30;;
63032;SDS011;49121;38.932;-9.018;2022-07-29T12:41:28;4.35;;;1.60;;
63032;SDS011;49121;38.932;-9.018;2022-07-29T12:43:29;3.80;;;1.80;;
63032;SDS011;49121;38.932;-9.018;2022-07-29T12:45:30;5.78;;;1.40;;
63032;SDS011;49121;38.932;-9.018;2022-07-29T12:47:31;2.30;;;1.30;;
63032;SDS011;49121;38.932;-9.018;2022-07-29T12:49:33;4.95;;;1.77;;
63032;SDS011;49121;38.932;-9.018;2022-07-29T12:51:35;5.63;;;1.70;;
63032;SDS011;49121;38.932;-9.018;2022-07-29T12:56:15;2.95;;;1.70;;
63032;SDS011;49121;38.932;-9.018;2022-07-29T12:58:29;5.18;;;1.80;;
63032;SDS011;49121;38.932;-9.018;2022-07-29T13:00:34;6.38;;;2.00;;
63032;SDS011;49121;38.932;-9.018;2022-07-29T13:02:35;5.72;;;2.00;;
63032;SDS011;49121;38.932;-9.018;2022-07-29T13:04:37;4.05;;;1.60;;
63032;SDS011;49121;38.932;-9.018;2022-07-29T13:06:41;6.55;;;1.85;;
63032;SDS011;49121;38.932;-9.018;2022-07-29T13:08:58;3.08;;;1.98;;
63032;SDS011;49121;38.932;-9.018;2022-07-29T13:11:03;3.72;;;1.80;;
63032;SDS011;49121;38.932;-9.018;2022-07-29T13:13:05;4.20;;;1.90;;
63032;SDS011;49121;38.932;-9.018;2022-07-29T13:15:13;8.20;;;2.10;;
63032;SDS011;49121;38.932;-9.018;2022-07-29T13:17:15;5.63;;;1.83;;
63032;SDS011;49121;38.932;-9.018;2022-07-29T13:19:31;4.32;;;1.77;;
63032;SDS011;49121;38.932;-9.018;2022-07-29T13:21:42;3.38;;;1.63;;
63032;SDS011;49121;38.932;-9.018;2022-07-29T13:23:45;3.63;;;2.08;;
63032;SDS011;49121;38.932;-9.018;2022-07-29T13:25:46;5.68;;;1.83;;
63032;SDS011;49121;38.932;-9.018;2022-07-29T13:27:47;5.38;;;2.03;;
63032;SDS011;49121;38.932;-9.018;2022-07-29T13:29:48;6.10;;;2.35;;
63032;SDS011;49121;38.932;-9.018;2022-07-29T13:31:51;3.72;;;2.10;;
63032;SDS011;49121;38.932;-9.018;2022-07-29T13:33:52;2.50;;;1.70;;
63032;SDS011;49121;38.932;-9.018;2022-07-29T13:35:53;2.00;;;1.70;;
63032;SDS011;49121;38.932;-9.018;2022-07-29T13:37:53;5.78;;;2.17;;
63032;SDS011;49121;38.932;-9.018;2022-07-29T13:39:56;4.85;;;1.90;;
63032;SDS011;49121;38.932;-9.018;2022-07-29T13:41:57;5.60;;;1.58;;